Time;durP1;ratioP1;P1;durP2;ratioP2;P2;SDS_P1;SDS_P2;PMS_P1;PMS_P2;Temp;Humidity;BMP_temperature;BMP_pressure;BME280_temperature;BME280_humidity;BME280_pressure;Samples;Min_cycle;Max_cycle;Signal;HPM_P1;HPM_P2
2022/06/07 00:00:10;;;;;;;0.75;0.52;;;;;;;11.70;100.00;100804.94;5064940;28;20024;-75
2022/06/07 00:02:36;;;;;;;0.73;0.60;;;;;;;11.66;100.00;100780.38;5030852;28;20032;-75
2022/06/07 00:05:03;;;;;;;1.67;1.10;;;;;;;11.65;100.00;100770.69;5047319;28;20445;-73
2022/06/07 00:07:29;;;;;;;1.02;0.70;;;;;;;11.81;100.00;100759.97;5055947;28;20036;-74
2022/06/07 00:09:55;;;;;;;0.80;0.70;;;;;;;11.71;100.00;100775.38;5046633;28;20439;-73
2022/06/07 00:12:21;;;;;;;1.13;0.65;;;;;;;11.70;100.00;100773.69;5030347;28;20036;-73
2022/06/07 00:14:47;;;;;;;0.85;0.80;;;;;;;11.80;100.00;100790.41;5047420;28;20090;-75
2022/06/07 00:17:13;;;;;;;0.60;0.60;;;;;;;11.76;100.00;100794.41;5030260;28;20078;-72
2022/06/07 00:19:39;;;;;;;1.35;0.70;;;;;;;11.66;100.00;100780.38;5064770;28;20117;-75
2022/06/07 00:22:06;;;;;;;0.70;0.70;;;;;;;11.62;100.00;100784.41;5046477;28;20623;-75
2022/06/07 00:24:32;;;;;;;2.25;1.38;;;;;;;11.60;100.00;100783.72;5047159;28;20023;-75
2022/06/07 00:26:58;;;;;;;2.67;0.80;;;;;;;11.64;100.00;100800.28;5047206;28;20159;-72
2022/06/07 00:29:25;;;;;;;0.73;0.63;;;;;;;11.64;100.00;100801.09;5065158;28;20088;-74
2022/06/07 01:36:13;;;;;;;2.70;2.03;;;;;;;11.31;100.00;100793.09;5065672;28;20664;-74
2022/06/07 01:38:42;;;;;;;2.78;1.90;;;;;;;11.33;100.00;100791.09;5050112;28;20529;-73
2022/06/07 01:43:53;;;;;;;2.47;2.10;;;;;;;11.31;100.00;100765.53;5068026;28;20045;-74
2022/06/07 01:46:18;;;;;;;4.30;2.63;;;;;;;11.28;100.00;100768.50;5033204;28;20482;-73
2022/06/07 01:48:46;;;;;;;2.78;2.58;;;;;;;11.35;100.00;100759.66;5049485;28;20185;-75
2022/06/07 01:51:12;;;;;;;3.58;2.38;;;;;;;11.29;100.00;100760.34;5032873;28;20047;-74
2022/06/07 01:53:39;;;;;;;6.93;2.75;;;;;;;11.22;100.00;100747.81;5049810;28;20040;-75
2022/06/07 01:56:07;;;;;;;2.85;2.53;;;;;;;11.18;100.00;100741.97;5049651;28;20114;-74
2022/06/07 01:58:34;;;;;;;3.75;2.80;;;;;;;11.18;100.00;100747.31;5033343;28;20396;-74
2022/06/07 02:01:00;;;;;;;3.78;2.80;;;;;;;11.18;100.00;100741.97;5049351;28;20017;-73
2022/06/07 02:03:25;;;;;;;3.15;2.70;;;;;;;11.09;100.00;100741.13;5049784;28;20032;-73
2022/06/07 02:05:59;;;;;;;3.70;2.93;;;;;;;11.09;100.00;100745.63;5049750;28;20035;-74
2022/06/07 02:08:26;;;;;;;4.15;2.72;;;;;;;11.06;100.00;100735.28;5033128;28;20024;-74
2022/06/07 02:10:53;;;;;;;3.78;2.42;;;;;;;11.12;100.00;100727.44;5029457;28;20032;-74
2022/06/07 02:13:19;;;;;;;3.40;2.75;;;;;;;11.16;100.00;100726.09;5047914;28;20029;-74
2022/06/07 02:15:45;;;;;;;;;;;;;;;11.17;100.00;100729.63;5033290;28;20411;-74
2022/06/07 02:18:11;;;;;;;3.10;2.70;;;;;;;11.15;100.00;100724.44;5067453;28;19955;-75
2022/06/07 02:20:44;;;;;;;3.78;3.00;;;;;;;11.10;100.00;100713.41;5049036;28;20382;-75
2022/06/07 02:23:10;;;;;;;8.53;2.77;;;;;;;11.14;100.00;100720.09;5067169;28;20038;-76
2022/06/07 02:25:41;;;;;;;3.37;3.07;;;;;;;11.10;100.00;100718.75;5032689;28;20028;-75
2022/06/07 02:28:09;;;;;;;4.45;3.28;;;;;;;11.11;100.00;100728.44;5049164;28;20043;-75
2022/06/07 02:30:35;;;;;;;4.32;3.30;;;;;;;11.05;100.00;100722.91;5048851;28;20115;-73
2022/06/07 02:33:01;;;;;;;4.07;3.67;;;;;;;11.07;100.00;100719.06;5048438;28;20115;-74
2022/06/07 02:35:26;;;;;;;4.28;3.67;;;;;;;11.05;100.00;100714.91;5049179;28;20103;-74
2022/06/07 02:37:53;;;;;;;5.82;4.07;;;;;;;11.08;100.00;100719.94;5067201;28;20090;-75
2022/06/07 02:40:18;;;;;;;7.28;3.70;;;;;;;11.07;100.00;100712.91;5048110;28;20017;-74
2022/06/07 02:42:44;;;;;;;5.60;4.38;;;;;;;11.05;100.00;100709.56;5048755;28;20553;-73
2022/06/07 02:45:11;;;;;;;6.13;3.40;;;;;;;11.08;100.00;100711.91;5048672;28;20024;-74
2022/06/07 02:47:36;;;;;;;4.70;4.22;;;;;;;11.09;100.00;100705.56;5048728;28;20040;-76
2022/06/07 02:50:10;;;;;;;8.75;4.70;;;;;;;11.03;100.00;100714.22;5048408;28;20085;-75
2022/06/07 02:52:38;;;;;;;5.93;4.63;;;;;;;11.01;100.00;100708.25;5032503;28;20127;-75
2022/06/07 02:55:09;;;;;;;5.43;4.30;;;;;;;11.06;100.00;100713.91;5046189;22;20025;-75
2022/06/07 02:57:36;;;;;;;6.97;3.83;;;;;;;11.08;100.00;100717.25;5012076;28;20060;-76
2022/06/07 03:00:05;;;;;;;3.35;3.03;;;;;;;11.09;100.00;100706.38;4995585;28;20037;-75
2022/06/07 03:02:31;;;;;;;3.33;2.97;;;;;;;11.03;100.00;100712.41;4996453;28;20041;-76
2022/06/07 03:04:57;;;;;;;4.05;3.30;;;;;;;10.99;100.00;100701.22;4996682;28;20021;-75
2022/06/07 03:07:23;;;;;;;4.10;3.00;;;;;;;10.99;100.00;100695.03;5011215;28;20147;-76
2022/06/07 03:09:50;;;;;;;5.75;3.95;;;;;;;10.99;100.00;100698.53;4997603;28;20128;-75
2022/06/07 03:12:15;;;;;;;3.30;3.00;;;;;;;10.94;100.00;100692.03;4993892;28;20052;-76
2022/06/07 03:14:41;;;;;;;4.20;3.67;;;;;;;11.01;100.00;100693.03;5015098;28;20538;-76
2022/06/07 03:17:06;;;;;;;2.85;2.55;;;;;;;11.04;100.00;100694.53;5009123;28;20408;-75
2022/06/07 03:19:34;;;;;;;3.00;2.65;;;;;;;11.09;100.00;100692.19;5015214;28;20029;-76
2022/06/07 03:22:01;;;;;;;5.75;3.03;;;;;;;11.12;100.00;100686.50;4991285;28;20033;-77
2022/06/07 03:24:28;;;;;;;3.42;3.10;;;;;;;11.00;100.00;100675.31;5008072;28;20487;-76
2022/06/07 03:26:55;;;;;;;9.88;3.20;;;;;;;11.09;100.00;100684.19;4992171;28;20029;-76
2022/06/07 03:29:21;;;;;;;4.45;2.60;;;;;;;10.98;100.00;100667.50;5010610;28;20029;-76
2022/06/07 03:31:48;;;;;;;5.65;2.95;;;;;;;11.00;100.00;100675.31;5013249;28;20623;-73
2022/06/07 03:34:15;;;;;;;3.13;2.47;;;;;;;11.02;100.00;100664.47;5017326;28;20036;-76
2022/06/07 03:36:41;;;;;;;3.67;2.47;;;;;;;11.13;100.00;100661.47;5014528;28;20124;-75
2022/06/07 03:39:09;;;;;;;5.38;2.78;;;;;;;11.16;100.00;100663.78;5008750;28;20040;-75
2022/06/07 03:41:39;;;;;;;6.95;2.58;;;;;;;11.23;100.00;100666.63;5014279;28;20037;-76
2022/06/07 03:44:10;;;;;;;3.80;2.50;;;;;;;11.18;100.00;100661.78;5008319;28;20040;-76
2022/06/07 03:46:43;;;;;;;7.07;2.53;;;;;;;11.19;100.00;100658.09;5014175;28;20033;-76
2022/06/07 03:49:09;;;;;;;5.07;2.47;;;;;;;11.14;100.00;100655.97;5008669;28;20044;-74
2022/06/07 03:51:34;;;;;;;5.40;2.80;;;;;;;11.18;100.00;100645.75;4998539;28;20344;-75
2022/06/07 03:54:02;;;;;;;5.70;2.25;;;;;;;11.22;100.00;100652.44;4991658;28;20033;-75
2022/06/07 03:56:30;;;;;;;2.78;2.05;;;;;;;11.26;100.00;100643.09;5008048;28;20051;-75
2022/06/07 03:58:58;;;;;;;6.22;1.90;;;;;;;11.23;100.00;100642.59;5003766;28;20033;-75
2022/06/07 04:01:25;;;;;;;3.75;2.10;;;;;;;11.19;100.00;100640.25;5010285;28;20086;-75
2022/06/07 04:03:54;;;;;;;2.67;2.15;;;;;;;11.20;100.00;100643.75;5012906;28;20045;-75
2022/06/07 04:06:27;;;;;;;4.40;2.25;;;;;;;11.26;100.00;100647.59;5009738;28;20029;-76
2022/06/07 04:08:58;;;;;;;2.95;2.10;;;;;;;11.30;100.00;100636.38;5028264;28;20052;-76
2022/06/07 04:11:27;;;;;;;2.28;1.95;;;;;;;11.42;100.00;100644.88;5008874;28;20104;-75
2022/06/07 04:13:58;;;;;;;2.42;1.85;;;;;;;11.33;100.00;100636.06;5024045;28;21015;-75
2022/06/07 04:16:28;;;;;;;6.28;3.50;;;;;;;11.29;100.00;100628.56;5028057;28;20091;-75
2022/06/07 04:18:58;;;;;;;4.30;1.95;;;;;;;11.38;100.00;100630.22;5012362;28;20026;-75
2022/06/07 04:21:26;;;;;;;3.08;1.58;;;;;;;11.32;100.00;100618.34;5011108;28;20112;-75
2022/06/07 04:23:56;;;;;;;4.15;3.00;;;;;;;11.34;100.00;100618.19;5013551;28;20109;-75
2022/06/07 04:26:24;;;;;;;3.50;2.53;;;;;;;11.45;100.00;100633.88;5011148;28;20133;-75
2022/06/07 04:28:51;;;;;;;3.58;2.20;;;;;;;11.52;100.00;100634.00;5013343;28;20112;-75
2022/06/07 04:31:22;;;;;;;3.50;2.40;;;;;;;11.53;100.00;100639.19;5016753;28;20854;-76
2022/06/07 04:33:48;;;;;;;5.55;2.45;;;;;;;11.52;100.00;100631.31;5013913;28;20057;-76
2022/06/07 04:36:22;;;;;;;2.85;2.42;;;;;;;11.58;100.00;100625.28;5010369;28;20377;-76
2022/06/07 04:38:50;;;;;;;6.03;2.10;;;;;;;11.52;100.00;100620.63;5013535;28;20045;-76
2022/06/07 04:41:20;;;;;;;3.42;2.60;;;;;;;11.61;100.00;100609.75;5009337;28;20017;-75
2022/06/07 04:43:52;;;;;;;4.03;2.05;;;;;;;11.61;100.00;100614.25;5016107;28;20033;-74
2022/06/07 04:46:20;;;;;;;2.78;2.45;;;;;;;11.55;100.00;100614.94;5010657;28;20033;-75
2022/06/07 04:48:49;;;;;;;3.83;2.28;;;;;;;11.60;100.00;100610.75;5012215;28;20059;-76
2022/06/07 04:51:28;;;;;;;3.33;2.35;;;;;;;11.65;100.00;100610.22;5025647;28;20442;-75
2022/06/07 04:54:12;;;;;;;3.90;1.90;;;;;;;11.62;100.00;100610.59;5009478;28;20044;-75
2022/06/07 04:56:42;;;;;;;2.42;1.98;;;;;;;11.68;100.00;100619.75;5018335;28;20036;-75
2022/06/07 04:59:09;;;;;;;6.15;2.85;;;;;;;11.70;100.00;100623.09;5012809;28;20042;-75
2022/06/07 05:01:41;;;;;;;2.95;2.30;;;;;;;11.84;100.00;100617.00;5031212;28;20044;-76
2022/06/07 05:04:12;;;;;;;2.25;1.70;;;;;;;11.87;100.00;100613.16;5031572;28;20084;-76
2022/06/07 05:06:42;;;;;;;2.10;1.90;;;;;;;11.82;100.00;100601.16;5002666;28;20029;-76
2022/06/07 05:09:24;;;;;;;4.15;2.47;;;;;;;11.83;100.00;100608.16;5021071;28;20025;-75
2022/06/07 05:11:56;;;;;;;2.00;1.80;;;;;;;11.90;100.00;100602.16;5016065;28;20107;-75
2022/06/07 05:14:23;;;;;;;2.55;2.00;;;;;;;11.90;100.00;100602.97;5014583;28;20052;-75
2022/06/07 05:16:49;;;;;;;1.50;1.40;;;;;;;11.97;100.00;100613.81;5000908;28;20037;-77
2022/06/07 05:19:20;;;;;;;2.20;1.35;;;;;;;12.00;100.00;100602.75;4998221;28;20499;-76
2022/06/07 05:21:50;;;;;;;3.00;1.70;;;;;;;11.93;100.00;100607.97;5019598;28;20399;-77
2022/06/07 05:24:16;;;;;;;2.17;1.65;;;;;;;11.92;100.00;100616.19;5029811;28;20045;-77
2022/06/07 05:26:49;;;;;;;2.65;1.58;;;;;;;12.01;100.00;100629.34;5031463;28;20025;-75
2022/06/07 05:29:34;;;;;;;1.92;1.70;;;;;;;12.02;100.00;100622.16;5007211;28;20038;-75
2022/06/07 05:32:00;;;;;;;2.00;1.80;;;;;;;12.12;100.00;100628.09;5015002;28;20083;-75
2022/06/07 05:34:26;;;;;;;4.13;2.00;;;;;;;12.04;100.00;100615.59;4998593;28;20021;-76
2022/06/07 05:36:53;;;;;;;2.83;2.00;;;;;;;12.01;100.00;100609.75;5031212;28;20040;-76
2022/06/07 05:39:25;;;;;;;2.72;1.80;;;;;;;12.08;100.00;100612.56;5029162;28;20425;-75
2022/06/07 05:41:52;;;;;;;2.67;1.70;;;;;;;12.01;100.00;100607.09;5008990;28;20044;-75
2022/06/07 05:44:22;;;;;;;1.98;1.55;;;;;;;12.06;100.00;100607.41;5028778;28;20052;-75
2022/06/07 05:46:49;;;;;;;3.38;1.60;;;;;;;12.10;100.00;100606.03;5008945;28;20029;-76
2022/06/07 05:49:28;;;;;;;3.67;1.63;;;;;;;12.17;100.00;100614.19;5011198;28;20010;-75
2022/06/07 05:52:00;;;;;;;2.75;1.55;;;;;;;12.21;100.00;100602.97;4999220;28;20033;-76
2022/06/07 05:54:28;;;;;;;1.73;1.40;;;;;;;12.17;100.00;100604.31;5014047;28;20040;-76
2022/06/07 05:56:54;;;;;;;3.65;2.10;;;;;;;12.16;100.00;100608.00;5015657;28;20037;-76
2022/06/07 05:59:20;;;;;;;2.23;2.03;;;;;;;12.22;100.00;100604.66;5013241;28;20033;-75
2022/06/07 06:01:45;;;;;;;2.40;1.95;;;;;;;12.22;100.00;100601.97;5008382;28;20073;-75
2022/06/07 06:04:11;;;;;;;;;;;;;;;12.33;100.00;100602.56;5012410;28;20064;-75
2022/06/07 06:06:42;;;;;;;3.33;2.53;;;;;;;12.25;100.00;100600.78;5001639;28;19944;-75
2022/06/07 06:11:55;;;;;;;4.45;2.60;;;;;;;12.33;100.00;100610.59;5014843;28;20411;-76
2022/06/07 06:14:26;;;;;;;3.88;2.40;;;;;;;12.28;100.00;100607.63;5021971;28;20021;-75
2022/06/07 06:17:00;;;;;;;5.15;2.90;;;;;;;12.32;100.00;100607.09;5030589;28;20100;-76
2022/06/07 06:19:32;;;;;;;3.45;2.45;;;;;;;12.44;100.00;100611.00;5004244;28;20026;-75
2022/06/07 06:21:58;;;;;;;;;;;;;;;12.36;100.00;100607.56;5027864;28;20033;-75
2022/06/07 06:24:26;;;;;;;5.65;2.95;;;;;;;12.41;100.00;100610.56;4997820;28;19967;-76
2022/06/07 06:26:54;;;;;;;3.63;2.47;;;;;;;12.54;100.00;100607.28;5014467;28;20574;-75
2022/06/07 06:29:23;;;;;;;4.53;3.40;;;;;;;12.51;100.00;100605.78;5027974;28;20025;-78
2022/06/07 06:31:51;;;;;;;6.05;3.00;;;;;;;12.44;100.00;100607.50;5024766;28;20087;-75
2022/06/07 06:34:19;;;;;;;5.78;2.83;;;;;;;12.67;100.00;100608.34;5012249;28;20029;-76
2022/06/07 06:36:45;;;;;;;3.40;2.83;;;;;;;12.79;100.00;100599.88;5012282;28;20415;-76
2022/06/07 06:39:12;;;;;;;4.80;2.80;;;;;;;12.90;100.00;100610.19;5019545;28;20025;-75
2022/06/07 06:41:45;;;;;;;3.58;2.65;;;;;;;12.84;100.00;100592.13;5029835;28;20043;-75
2022/06/07 06:44:12;;;;;;;4.30;3.30;;;;;;;12.99;100.00;100581.44;5013486;28;20084;-76
2022/06/07 06:46:42;;;;;;;4.60;3.03;;;;;;;12.90;100.00;100578.03;5000706;28;20614;-75
2022/06/07 06:49:11;;;;;;;6.05;3.40;;;;;;;13.01;100.00;100582.91;4994419;28;20455;-76
2022/06/07 06:51:37;;;;;;;6.03;3.35;;;;;;;13.09;100.00;100569.44;5017973;28;20028;-75
2022/06/07 06:54:04;;;;;;;5.15;3.50;;;;;;;13.23;100.00;100566.97;5002016;28;20034;-75
2022/06/07 06:56:36;;;;;;;4.97;3.40;;;;;;;13.33;100.00;100553.31;5029855;28;20450;-76
2022/06/07 06:59:12;;;;;;;5.10;3.47;;;;;;;13.68;100.00;100570.50;5006101;28;20037;-76
2022/06/07 07:01:39;;;;;;;6.25;3.92;;;;;;;13.43;100.00;100549.31;5016644;28;20496;-76
2022/06/07 07:04:13;;;;;;;3.97;3.47;;;;;;;13.55;100.00;100565.78;4994400;28;20084;-75
2022/06/07 07:06:39;;;;;;;3.97;3.38;;;;;;;13.58;100.00;100543.09;5029215;28;20045;-76
2022/06/07 07:09:06;;;;;;;4.60;3.35;;;;;;;13.57;100.00;100528.88;5012809;28;20029;-76
2022/06/07 07:11:38;;;;;;;4.25;3.28;;;;;;;13.83;100.00;100557.03;5001386;28;20514;-77
2022/06/07 07:14:08;;;;;;;3.70;3.20;;;;;;;14.13;100.00;100539.84;5001899;28;20120;-76
2022/06/07 07:16:39;;;;;;;4.03;3.63;;;;;;;13.86;100.00;100527.13;5008573;28;20701;-76
2022/06/07 07:19:05;;;;;;;7.93;4.10;;;;;;;14.12;100.00;100522.06;5024917;28;20095;-76
2022/06/07 07:21:37;;;;;;;7.28;4.82;;;;;;;14.18;100.00;100528.53;4993062;28;20026;-77
2022/06/07 07:24:12;;;;;;;5.32;3.88;;;;;;;14.36;100.00;100526.22;5010781;28;20037;-77
2022/06/07 07:26:43;;;;;;;5.40;4.53;;;;;;;14.54;100.00;100509.69;5000080;28;20025;-77
2022/06/07 07:29:11;;;;;;;5.93;4.78;;;;;;;14.30;100.00;100508.19;5001474;28;20086;-75
2022/06/07 07:31:38;;;;;;;6.97;5.75;;;;;;;14.09;100.00;100500.13;5012760;28;20040;-77
2022/06/07 07:34:07;;;;;;;6.78;4.88;;;;;;;14.33;100.00;100536.53;5028918;28;20037;-77
2022/06/07 07:36:35;;;;;;;6.25;4.80;;;;;;;14.07;100.00;100520.97;5016699;28;20041;-77
2022/06/07 07:39:01;;;;;;;7.88;5.60;;;;;;;14.09;100.00;100543.94;5009345;28;20029;-77
2022/06/07 07:41:34;;;;;;;8.18;5.50;;;;;;;14.31;100.00;100560.88;5045809;28;20028;-76
2022/06/07 07:44:03;;;;;;;7.07;5.28;;;;;;;14.33;100.00;100541.91;5000895;28;20037;-75
2022/06/07 07:46:32;;;;;;;9.77;6.18;;;;;;;14.46;100.00;100546.56;5001393;28;20032;-76
2022/06/07 07:48:59;;;;;;;9.70;6.05;;;;;;;14.62;100.00;100551.69;5017190;28;20037;-76
2022/06/07 07:51:28;;;;;;;13.45;8.85;;;;;;;14.26;100.00;100527.59;5019838;28;20013;-77
2022/06/07 07:53:57;;;;;;;8.77;6.93;;;;;;;14.53;100.00;100534.00;4996988;28;20116;-76
2022/06/07 07:56:23;;;;;;;15.07;8.05;;;;;;;14.46;100.00;100557.28;5010958;28;20037;-76
2022/06/07 07:58:50;;;;;;;11.45;8.30;;;;;;;14.34;100.00;100544.38;5022282;28;20029;-77
2022/06/07 08:01:21;;;;;;;14.05;8.43;;;;;;;14.29;100.00;100554.88;5010127;28;20044;-77
2022/06/07 08:03:48;;;;;;;11.20;8.77;;;;;;;14.78;100.00;100562.16;5028282;28;20530;-77
2022/06/07 08:06:21;;;;;;;14.10;9.77;;;;;;;14.78;100.00;100551.41;5026060;28;20025;-77
2022/06/07 08:08:50;;;;;;;15.90;9.57;;;;;;;14.83;100.00;100552.69;5022772;28;20095;-75
2022/06/07 08:11:18;;;;;;;15.85;10.10;;;;;;;14.40;100.00;100529.38;4995574;28;20025;-77
2022/06/07 08:13:43;;;;;;;11.70;9.20;;;;;;;14.71;100.00;100549.69;5047181;28;20041;-76
2022/06/07 08:16:10;;;;;;;15.65;10.88;;;;;;;14.40;100.00;100541.94;5017102;28;20108;-75
2022/06/07 08:18:36;;;;;;;12.50;9.77;;;;;;;14.59;100.00;100548.56;5012105;28;20048;-75
2022/06/07 08:21:06;;;;;;;12.70;9.52;;;;;;;14.83;100.00;100547.31;5011725;28;20170;-77
2022/06/07 08:23:32;;;;;;;13.65;8.95;;;;;;;15.09;100.00;100542.09;5026690;28;20037;-75
2022/06/07 08:25:59;;;;;;;;;;;;;;;14.93;100.00;100515.53;5034803;28;20035;-75
2022/06/07 08:28:24;;;;;;;13.57;9.77;;;;;;;14.95;100.00;100524.22;5024840;28;19928;-76
2022/06/07 08:30:50;;;;;;;15.45;9.90;;;;;;;14.85;100.00;100529.13;5022504;28;20025;-76
2022/06/07 08:39:07;;;;;;;14.32;10.60;;;;;;;14.66;100.00;100520.72;4970090;28;20034;-76
2022/06/07 08:41:40;;;;;;;17.33;12.52;;;;;;;14.67;100.00;100524.25;4976100;28;20041;-76
2022/06/07 08:44:19;;;;;;;14.75;9.70;;;;;;;14.54;100.00;100524.97;4981725;28;20045;-76
2022/06/07 08:46:45;;;;;;;14.25;10.48;;;;;;;14.45;100.00;100531.47;5037762;28;20052;-76
2022/06/07 08:49:12;;;;;;;21.80;10.75;;;;;;;14.44;100.00;100546.72;5002768;28;20033;-76
2022/06/07 08:51:57;;;;;;;14.48;9.65;;;;;;;14.29;100.00;100541.44;5021175;28;20127;-76
2022/06/07 08:54:26;;;;;;;16.17;9.27;;;;;;;14.31;100.00;100560.06;5011193;28;20496;-75
2022/06/07 08:56:53;;;;;;;15.60;9.63;;;;;;;14.36;100.00;100553.06;5053381;23;20060;-77
2022/06/07 08:59:21;;;;;;;12.57;8.40;;;;;;;14.40;100.00;100576.84;5042519;28;20467;-76
2022/06/07 09:02:03;;;;;;;15.95;8.73;;;;;;;14.36;100.00;100555.75;5043789;28;20040;-76
2022/06/07 09:04:36;;;;;;;18.63;9.15;;;;;;;14.39;100.00;100556.41;5025139;28;20033;-77
2022/06/07 09:07:21;;;;;;;12.07;8.38;;;;;;;14.48;100.00;100556.06;5037087;28;20098;-75
2022/06/07 09:12:37;;;;;;;11.98;9.02;;;;;;;14.54;100.00;100549.16;5043564;28;20143;-76
2022/06/07 09:15:13;;;;;;;14.43;8.63;;;;;;;14.72;100.00;100536.06;5019058;28;20438;-75
2022/06/07 09:17:45;;;;;;;13.20;8.75;;;;;;;14.74;100.00;100509.81;5008588;28;20029;-76
2022/06/07 09:20:21;;;;;;;10.10;7.80;;;;;;;14.65;100.00;100520.91;5044466;28;20071;-76
2022/06/07 09:23:04;;;;;;;12.35;7.55;;;;;;;14.93;100.00;100542.41;5042843;28;20044;-76
2022/06/07 09:25:35;;;;;;;11.20;7.03;;;;;;;14.98;100.00;100513.94;5044670;28;20037;-75
2022/06/07 09:28:05;;;;;;;12.20;6.72;;;;;;;15.18;100.00;100518.59;5027083;28;20097;-75
2022/06/07 09:30:38;;;;;;;10.20;7.15;;;;;;;15.43;100.00;100516.25;5027541;28;20467;-75
2022/06/07 09:33:10;;;;;;;11.40;8.13;;;;;;;14.97;100.00;100458.50;5043386;28;20052;-75
2022/06/07 09:35:39;;;;;;;10.50;6.82;;;;;;;15.01;100.00;100471.53;5042956;28;20250;-76
2022/06/07 09:38:12;;;;;;;11.57;7.57;;;;;;;14.91;100.00;100477.25;5043096;28;20032;-76
2022/06/07 09:41:01;;;;;;;11.15;7.68;;;;;;;15.05;100.00;100480.88;5021158;28;20033;-76
2022/06/07 09:43:38;;;;;;;11.75;7.68;;;;;;;14.77;100.00;100457.53;5028049;28;20041;-75
2022/06/07 09:46:09;;;;;;;12.32;7.30;;;;;;;14.82;100.00;100478.44;5047734;28;20041;-76
2022/06/07 09:48:41;;;;;;;9.55;6.88;;;;;;;15.04;100.00;100504.25;5040703;28;20143;-76
2022/06/07 09:51:16;;;;;;;10.52;6.72;;;;;;;15.06;100.00;100459.16;5047077;28;20033;-74
2022/06/07 09:53:46;;;;;;;11.60;7.18;;;;;;;14.95;100.00;100428.28;5047274;28;20045;-75
2022/06/07 09:56:30;;;;;;;11.18;6.00;;;;;;;15.13;100.00;100454.66;5047516;28;20072;-75
2022/06/07 09:59:28;;;;;;;8.63;6.50;;;;;;;15.17;100.00;100426.34;5030500;28;20414;-75
2022/06/07 10:01:59;;;;;;;7.55;6.75;;;;;;;15.00;100.00;100368.56;5028454;28;20041;-75
2022/06/07 10:04:49;;;;;;;7.63;5.25;;;;;;;15.30;100.00;100403.22;5048550;28;20280;-76
2022/06/07 10:07:59;;;;;;;7.90;5.35;;;;;;;15.33;100.00;100381.28;5046799;28;20041;-77
2022/06/07 10:10:42;;;;;;;7.53;6.15;;;;;;;15.62;100.00;100364.81;5030312;28;20033;-75
2022/06/07 10:13:34;;;;;;;7.32;6.25;;;;;;;15.74;100.00;100334.63;5039762;28;20047;-75
2022/06/07 10:16:12;;;;;;;9.15;6.07;;;;;;;15.96;100.00;100316.38;5030775;28;20032;-74
2022/06/07 10:19:11;;;;;;;9.35;6.13;;;;;;;15.84;100.00;100281.19;5047190;28;20041;-75
2022/06/07 10:22:02;;;;;;;10.60;6.10;;;;;;;15.83;100.00;100290.31;5046821;28;20040;-77
2022/06/07 10:24:36;;;;;;;6.97;5.80;;;;;;;16.09;100.00;100289.47;5048875;28;20120;-76
2022/06/07 10:27:22;;;;;;;13.95;5.60;;;;;;;16.65;100.00;100317.72;5045692;28;20522;-77
2022/06/07 10:30:15;;;;;;;7.68;5.63;;;;;;;16.64;100.00;100281.00;5029665;28;20045;-76
2022/06/07 10:32:59;;;;;;;7.38;5.88;;;;;;;16.74;100.00;100281.41;5015652;28;20376;-77
2022/06/07 10:35:41;;;;;;;8.10;5.53;;;;;;;16.43;100.00;100307.19;5045207;28;20119;-76
2022/06/07 10:38:15;;;;;;;6.75;5.30;;;;;;;16.33;100.00;100298.72;5047704;28;20036;-75
2022/06/07 10:41:06;;;;;;;6.38;4.45;;;;;;;16.56;100.00;100337.84;5049333;28;20089;-77
2022/06/07 10:43:53;;;;;;;6.35;5.72;;;;;;;16.19;100.00;100297.09;5027364;28;20049;-76
2022/06/07 10:46:21;;;;;;;7.10;5.05;;;;;;;16.20;100.00;100352.59;5047661;28;20047;-75
2022/06/07 10:49:14;;;;;;;7.30;5.30;;;;;;;16.50;100.00;100349.47;5046871;28;20079;-75
2022/06/07 10:54:44;;;;;;;7.85;5.90;;;;;;;15.90;100.00;100301.91;5047487;28;20813;-76
2022/06/07 10:57:16;;;;;;;12.70;6.47;;;;;;;16.00;100.00;100317.63;5047266;28;20039;-76
2022/06/07 10:59:43;;;;;;;7.75;6.28;;;;;;;16.68;100.00;100346.91;5038477;28;20036;-75
2022/06/07 11:02:21;;;;;;;7.35;5.30;;;;;;;16.83;100.00;100285.53;5038596;28;20071;-77
2022/06/07 11:10:41;;;;;;;10.82;6.28;;;;;;;16.32;100.00;100320.47;5047816;28;20481;-76
2022/06/07 11:13:38;;;;;;;5.70;4.97;;;;;;;16.08;100.00;100324.66;5016059;28;20426;-76
2022/06/07 11:16:15;;;;;;;7.78;5.68;;;;;;;16.06;100.00;100397.59;5047788;28;20045;-77
2022/06/07 11:18:42;;;;;;;7.25;6.40;;;;;;;15.49;100.00;100347.81;5041720;28;20044;-75
2022/06/07 11:21:08;;;;;;;;;;;;;;;15.18;100.00;100419.09;5021549;28;20049;-76
2022/06/07 11:23:35;;;;;;;10.65;6.88;;;;;;;15.48;100.00;100492.25;5047324;28;20287;-75
2022/06/07 11:26:03;;;;;;;10.82;7.30;;;;;;;15.69;100.00;100520.91;5045359;28;20024;-76
2022/06/07 11:28:40;;;;;;;9.63;7.95;;;;;;;16.16;100.00;100505.72;5012908;28;20111;-76
2022/06/07 11:31:15;;;;;;;10.25;8.40;;;;;;;16.18;100.00;100411.28;5042492;28;20087;-75
2022/06/07 11:33:46;;;;;;;9.70;7.32;;;;;;;16.46;100.00;100441.50;5045379;28;20095;-75
2022/06/07 11:36:12;;;;;;;10.57;8.23;;;;;;;16.79;100.00;100432.56;5045713;28;20634;-75
2022/06/07 11:39:02;;;;;;;9.73;7.80;;;;;;;16.18;100.00;100298.97;5006359;28;20108;-75
2022/06/07 11:41:36;;;;;;;10.18;7.32;;;;;;;15.98;100.00;100347.44;5037374;28;20036;-76
2022/06/07 11:44:10;;;;;;;9.60;8.05;;;;;;;15.87;100.00;100348.06;5045821;28;20567;-76
2022/06/07 11:46:36;;;;;;;10.18;8.38;;;;;;;15.59;100.00;100303.34;5044795;28;20151;-75
2022/06/07 11:49:20;;;;;;;10.63;7.80;;;;;;;15.34;100.00;100364.97;5015753;28;20057;-77
2022/06/07 11:51:55;;;;;;;13.35;7.97;;;;;;;15.01;100.00;100417.75;5031572;28;20055;-77
2022/06/07 11:54:34;;;;;;;9.80;7.93;;;;;;;15.05;100.00;100491.63;5046968;28;20032;-77
2022/06/07 11:57:20;;;;;;;13.90;8.70;;;;;;;14.95;100.00;100487.44;5044517;28;20036;-77
2022/06/07 11:59:48;;;;;;;9.57;7.68;;;;;;;15.00;100.00;100521.78;5046321;28;20033;-77
2022/06/07 12:02:27;;;;;;;19.58;9.73;;;;;;;15.09;100.00;100514.41;5044124;28;20052;-76
2022/06/07 12:05:02;;;;;;;11.18;8.32;;;;;;;15.16;100.00;100516.09;5044748;28;20056;-76
2022/06/07 12:07:48;;;;;;;12.00;8.00;;;;;;;15.13;100.00;100478.03;5044258;28;20037;-76
2022/06/07 12:10:17;;;;;;;12.75;8.25;;;;;;;15.22;100.00;100460.69;5044209;28;20059;-76
2022/06/07 12:12:47;;;;;;;11.15;7.88;;;;;;;14.93;100.00;100413.38;5017906;28;20037;-76
2022/06/07 12:15:23;;;;;;;10.95;7.38;;;;;;;14.93;100.00;100427.66;5042859;28;20124;-77
2022/06/07 12:17:58;;;;;;;;;;;;;;;14.88;100.00;100431.97;5045117;28;20060;-75
2022/06/07 12:20:38;;;;;;;13.32;8.77;;;;;;;14.87;100.00;100458.03;5045914;28;19963;-75
2022/06/07 12:23:23;;;;;;;25.63;11.13;;;;;;;15.32;100.00;100468.41;5044186;28;20565;-76
2022/06/07 12:26:34;;;;;;;11.85;8.00;;;;;;;16.45;100.00;100466.78;5042071;28;20040;-77
2022/06/07 12:29:24;;;;;;;10.63;6.90;;;;;;;16.71;100.00;100297.97;4963279;28;20038;-76
2022/06/07 12:31:54;;;;;;;7.10;4.82;;;;;;;17.64;100.00;100221.06;5038056;28;20033;-77
2022/06/07 12:34:27;;;;;;;7.38;5.25;;;;;;;17.19;100.00;100240.91;5035680;28;20167;-76
2022/06/07 12:37:03;;;;;;;11.48;7.03;;;;;;;16.39;100.00;100222.47;5045056;28;20032;-75
2022/06/07 12:39:30;;;;;;;8.32;5.82;;;;;;;16.39;100.00;100244.00;5044845;28;20487;-77
2022/06/07 12:42:03;;;;;;;5.85;4.93;;;;;;;15.97;100.00;100270.44;5043451;28;20526;-76
2022/06/07 12:44:37;;;;;;;8.73;5.53;;;;;;;16.01;100.00;100297.75;5026816;28;20029;-77
2022/06/07 12:47:05;;;;;;;7.95;5.45;;;;;;;16.44;100.00;100319.63;5044681;28;20071;-76
2022/06/07 12:49:40;;;;;;;7.97;6.35;;;;;;;16.42;100.00;100256.22;5020248;28;20169;-76
2022/06/07 12:52:11;;;;;;;7.07;6.13;;;;;;;16.74;100.00;100334.44;5038556;28;20079;-76
2022/06/07 12:54:36;;;;;;;9.65;7.22;;;;;;;16.31;100.00;100222.69;5038007;28;20329;-76
2022/06/07 12:57:12;;;;;;;13.07;6.70;;;;;;;16.10;100.00;100274.13;5023526;28;20107;-77
2022/06/07 12:59:40;;;;;;;10.85;7.35;;;;;;;16.12;100.00;100326.72;5012427;28;20033;-76
2022/06/07 13:02:22;;;;;;;9.25;6.43;;;;;;;15.62;100.00;100299.41;5044999;28;20112;-77